createdAt,value
2023-06-03T00:00:40.051Z,54.05
2023-06-03T00:01:40.035Z,54.05
2023-06-03T00:02:40.081Z,53.95
2023-06-03T00:03:40.146Z,53.54
2023-06-03T00:04:40.084Z,54.26
2023-06-03T00:05:39.990Z,53.95
2023-06-03T00:06:39.995Z,53.67
2023-06-03T00:07:39.998Z,53.77
2023-06-03T00:08:39.970Z,53.77
2023-06-03T00:09:39.954Z,53.98
2023-06-03T00:10:39.942Z,53.88
2023-06-03T00:11:39.951Z,53.57
2023-06-03T00:12:39.921Z,53.98
2023-06-03T00:13:39.915Z,53.36
2023-06-03T00:14:39.913Z,53.26
2023-06-03T00:15:39.906Z,53.36
2023-06-03T00:16:39.895Z,53.36
2023-06-03T00:17:39.880Z,54.39
2023-06-03T00:18:39.859Z,52.85
2023-06-03T00:19:39.855Z,52.44
2023-06-03T00:20:39.853Z,53.47
2023-06-03T00:21:39.821Z,53.47
2023-06-03T00:22:39.816Z,52.75
2023-06-03T00:23:39.860Z,52.65
2023-06-03T00:24:39.786Z,52.24
2023-06-03T00:25:39.788Z,51.93
2023-06-03T00:26:39.771Z,52.24
2023-06-03T00:27:39.780Z,52.03
2023-06-03T00:28:39.752Z,52.03
2023-06-03T00:29:39.743Z,51.93
2023-06-03T00:30:39.720Z,52.24
2023-06-03T00:31:39.751Z,52.34
2023-06-03T00:32:39.709Z,52.24
2023-06-03T00:33:39.844Z,52.75
2023-06-03T00:34:39.681Z,52.44
2023-06-03T00:35:39.676Z,52.95
2023-06-03T00:36:39.670Z,53.06
2023-06-03T00:37:39.669Z,52.65
2023-06-03T00:38:39.658Z,52.75
2023-06-03T00:39:39.648Z,54.90
2023-06-03T00:40:39.622Z,53.06
2023-06-03T00:41:39.614Z,54.69
2023-06-03T00:42:39.604Z,56.84
2023-06-03T00:43:39.592Z,61.26
2023-06-03T00:44:39.596Z,61.98
2023-06-03T00:45:39.607Z,60.58
2023-06-03T00:46:39.565Z,59.45
2023-06-03T00:50:24.161Z,60.25
2023-06-03T00:51:03.568Z,61.51
2023-06-03T00:52:03.430Z,61.92
2023-06-03T00:53:03.416Z,64.89
2023-06-03T00:54:03.415Z,66.16
2023-06-03T00:55:03.412Z,65.33
2023-06-03T00:56:03.392Z,66.36
2023-06-03T00:57:03.409Z,65.88
2023-06-03T00:58:03.430Z,65.88
2023-06-03T00:59:03.374Z,67.65
2023-06-03T01:00:03.331Z,67.44
2023-06-03T01:01:03.761Z,67.68
2023-06-03T01:02:03.347Z,71.62
2023-06-03T01:03:03.375Z,69.56
2023-06-03T01:04:03.294Z,69.36
2023-06-03T01:05:03.286Z,69.15
2023-06-03T01:06:03.272Z,67.20
2023-06-03T01:07:03.263Z,66.55
2023-06-03T01:08:03.258Z,67.38
2023-06-03T01:09:03.251Z,69.23
2023-06-03T01:10:03.236Z,67.79
2023-06-03T01:11:03.437Z,70.56
2023-06-03T01:12:03.228Z,69.46
2023-06-03T01:13:03.201Z,67.92
2023-06-03T01:14:03.188Z,70.83
2023-06-03T01:15:03.196Z,70.62
2023-06-03T01:16:03.222Z,73.09
2023-06-03T01:17:03.174Z,73.95
2023-06-03T01:18:03.230Z,72.75
2023-06-03T01:19:03.130Z,69.35
2023-06-03T01:20:03.132Z,68.63
2023-06-03T01:21:03.300Z,68.94
2023-06-03T01:22:03.133Z,69.25
2023-06-03T01:23:03.094Z,69.22
2023-06-03T01:24:03.180Z,72.96
2023-06-03T01:25:03.082Z,71.51
2023-06-03T01:26:03.069Z,68.84
2023-06-03T01:27:03.063Z,69.53
2023-06-03T01:28:03.039Z,69.01
2023-06-03T01:29:03.030Z,70.56
2023-06-03T01:30:05.003Z,67.98
2023-06-03T01:31:03.199Z,68.70
2023-06-03T01:32:02.995Z,67.98
2023-06-03T01:33:03.062Z,67.98
2023-06-03T01:34:02.978Z,67.98
2023-06-03T01:35:02.953Z,68.29
2023-06-03T01:36:02.959Z,68.29
2023-06-03T01:37:02.951Z,68.40
2023-06-03T01:38:03.838Z,68.70
2023-06-03T01:39:02.929Z,67.57
2023-06-03T01:40:02.922Z,67.88
2023-06-03T01:41:03.103Z,66.41
2023-06-03T01:42:02.913Z,67.23
2023-06-03T01:43:02.876Z,67.65
2023-06-03T01:44:02.862Z,70.83
2023-06-03T01:45:02.859Z,72.20
2023-06-03T01:46:02.870Z,73.23
2023-06-03T01:47:02.887Z,74.19
2023-06-03T01:48:02.872Z,72.44
2023-06-03T01:49:02.808Z,72.03
2023-06-03T01:50:02.789Z,73.81
2023-06-03T01:51:02.927Z,71.24
2023-06-03T01:52:02.781Z,70.00
2023-06-03T01:53:02.764Z,69.35
2023-06-03T01:54:02.751Z,68.63
2023-06-03T01:55:02.750Z,68.32
2023-06-03T01:56:02.745Z,69.56
2023-06-03T01:57:02.739Z,65.31
2023-06-03T01:58:02.717Z,63.22
2023-06-03T01:59:02.725Z,62.40
2023-06-03T02:00:02.700Z,62.68
2023-06-03T02:01:02.885Z,61.52
2023-06-03T02:02:02.705Z,61.32
2023-06-03T02:03:02.657Z,61.21
2023-06-03T02:04:02.607Z,61.18
2023-06-03T02:05:02.631Z,61.39
2023-06-03T02:06:02.631Z,61.08
2023-06-03T02:07:02.609Z,60.88
2023-06-03T02:08:02.602Z,60.47
2023-06-03T02:09:02.597Z,60.36
2023-06-03T02:10:02.582Z,59.95
2023-06-03T02:11:02.721Z,59.52
2023-06-03T02:12:02.555Z,59.20
2023-06-03T02:13:02.558Z,59.62
2023-06-03T02:14:02.546Z,58.69
2023-06-03T02:15:02.538Z,58.39
2023-06-03T02:16:02.510Z,58.46
2023-06-03T02:17:02.713Z,58.26
2023-06-03T02:18:02.530Z,58.67
2023-06-03T02:19:02.483Z,58.87
2023-06-03T02:20:02.486Z,59.69
2023-06-03T02:21:02.732Z,59.48
2023-06-03T02:22:02.456Z,60.92
2023-06-03T02:23:02.440Z,62.26
2023-06-03T02:24:02.509Z,63.79
2023-06-03T02:25:02.419Z,66.39
2023-06-03T02:26:02.418Z,67.03
2023-06-03T02:27:02.798Z,65.73
2023-06-03T02:28:02.378Z,63.37
2023-06-03T02:29:02.377Z,62.75
2023-06-03T02:30:02.362Z,63.47
2023-06-03T02:31:02.496Z,61.83
2023-06-03T02:32:02.447Z,62.24
2023-06-03T02:33:02.386Z,61.42
2023-06-03T02:34:02.312Z,61.21
2023-06-03T02:35:02.329Z,60.60
2023-06-03T02:36:02.368Z,61.29
2023-06-03T02:37:02.292Z,60.16
2023-06-03T02:38:02.309Z,60.36
2023-06-03T02:39:02.287Z,60.26
2023-06-03T02:40:02.222Z,60.47
2023-06-03T02:41:02.347Z,60.88
2023-06-03T02:42:02.238Z,60.67
2023-06-03T02:43:02.220Z,60.54
2023-06-03T02:44:02.222Z,61.16
2023-06-03T02:45:02.227Z,61.05
2023-06-03T02:46:02.228Z,61.26
2023-06-03T02:47:02.176Z,60.98
2023-06-03T02:48:02.243Z,61.08
2023-06-03T02:49:02.106Z,61.18
2023-06-03T02:50:02.153Z,61.49
2023-06-03T02:51:02.139Z,61.70
2023-06-03T02:52:02.114Z,62.21
2023-06-03T02:53:02.067Z,61.60
2023-06-03T02:54:02.059Z,61.70
2023-06-03T02:55:02.048Z,62.04
2023-06-03T02:56:02.045Z,62.34
2023-06-03T02:57:02.027Z,62.55
2023-06-03T02:58:02.019Z,62.55
2023-06-03T02:59:01.995Z,62.88
2023-06-03T03:00:02.000Z,63.09
2023-06-03T03:01:02.018Z,63.60
2023-06-03T03:02:01.989Z,63.60
2023-06-03T03:03:02.096Z,63.81
2023-06-03T03:04:01.954Z,63.94
2023-06-03T03:05:01.946Z,64.25
2023-06-03T03:06:01.944Z,64.36
2023-06-03T03:07:01.915Z,64.46
2023-06-03T03:08:01.925Z,64.66
2023-06-03T03:09:01.898Z,64.76
2023-06-03T03:10:01.888Z,65.38
2023-06-03T03:11:01.978Z,64.46
2023-06-03T03:12:01.852Z,67.65
2023-06-03T03:13:01.846Z,65.80
2023-06-03T03:14:01.866Z,64.76
2023-06-03T03:15:01.828Z,63.84
2023-06-03T03:16:01.851Z,63.94
2023-06-03T03:17:01.809Z,64.25
2023-06-03T03:18:01.863Z,63.43
2023-06-03T03:19:01.873Z,63.22
2023-06-03T03:20:01.791Z,63.12
2023-06-03T03:21:01.764Z,62.88
2023-06-03T03:22:01.779Z,64.22
2023-06-03T03:23:01.741Z,64.01
2023-06-03T03:24:01.788Z,66.58
2023-06-03T03:25:01.719Z,65.77
2023-06-03T03:26:01.977Z,62.88
2023-06-03T03:27:01.691Z,61.99
2023-06-03T03:28:01.691Z,62.99
2023-06-03T03:29:01.667Z,63.20
2023-06-03T03:30:01.678Z,62.88
2023-06-03T03:31:01.669Z,63.09
2023-06-03T03:32:01.736Z,62.27
2023-06-03T03:33:01.665Z,61.55
2023-06-03T03:34:01.619Z,61.35
2023-06-03T03:35:01.604Z,61.32
2023-06-03T03:36:01.607Z,62.04
2023-06-03T03:37:01.576Z,62.96
2023-06-03T03:38:01.583Z,64.91
2023-06-03T03:39:01.573Z,63.27
2023-06-03T03:40:01.548Z,65.73
2023-06-03T03:41:01.552Z,63.57
2023-06-03T03:42:01.564Z,63.57
2023-06-03T03:43:01.531Z,62.55
2023-06-03T03:44:01.526Z,62.96
2023-06-03T03:45:01.517Z,62.55
2023-06-03T03:46:01.538Z,62.14
2023-06-03T03:47:01.511Z,62.24
2023-06-03T03:48:01.495Z,62.34
2023-06-03T03:49:01.457Z,62.24
2023-06-03T03:50:01.460Z,66.04
2023-06-03T03:51:01.440Z,63.78
2023-06-03T03:52:01.444Z,68.54
2023-06-03T03:53:01.444Z,66.89
2023-06-03T03:54:01.399Z,64.94
2023-06-03T03:55:01.408Z,64.04
2023-06-03T03:56:01.385Z,63.94
2023-06-03T03:57:01.392Z,63.74
2023-06-03T03:58:01.356Z,63.91
2023-06-03T03:59:01.364Z,63.71
2023-06-03T04:00:01.382Z,64.22
2023-06-03T04:01:01.336Z,64.22
2023-06-03T04:02:01.834Z,64.22
2023-06-03T04:03:01.401Z,64.32
2023-06-03T04:04:01.337Z,64.70
2023-06-03T04:05:01.303Z,64.70
2023-06-03T04:06:01.287Z,64.81
2023-06-03T04:07:01.266Z,64.91
2023-06-03T04:08:01.266Z,65.12
2023-06-03T04:09:01.245Z,65.01
2023-06-03T04:10:01.230Z,64.19
2023-06-03T04:11:01.213Z,65.01
2023-06-03T04:12:01.212Z,64.78
2023-06-03T04:13:01.235Z,63.54
2023-06-03T04:14:01.197Z,62.01
2023-06-03T04:15:01.203Z,61.60
2023-06-03T04:16:01.175Z,61.60
2023-06-03T04:17:01.154Z,61.39
2023-06-03T04:18:01.179Z,61.77
2023-06-03T04:19:01.140Z,60.95
2023-06-03T04:20:01.186Z,61.05
2023-06-03T04:21:01.137Z,60.85
2023-06-03T04:22:01.168Z,60.85
2023-06-03T04:23:01.111Z,60.64
2023-06-03T04:24:01.267Z,60.23
2023-06-03T04:25:01.101Z,60.31
2023-06-03T04:26:01.063Z,61.95
2023-06-03T04:27:01.067Z,61.02
2023-06-03T04:28:01.048Z,60.61
2023-06-03T04:29:01.039Z,60.61
2023-06-03T04:30:01.013Z,60.72
2023-06-03T04:31:01.013Z,60.51
2023-06-03T04:32:01.058Z,60.51
2023-06-03T04:33:01.051Z,60.41
2023-06-03T04:34:00.984Z,60.10
2023-06-03T04:35:00.973Z,60.31
2023-06-03T04:36:00.953Z,59.87
2023-06-03T04:37:00.940Z,59.77
2023-06-03T04:38:00.960Z,60.07
2023-06-03T04:39:00.952Z,59.97
2023-06-03T04:40:00.953Z,60.31
2023-06-03T04:41:00.922Z,60.00
2023-06-03T04:42:00.890Z,60.00
2023-06-03T04:43:00.884Z,59.69
2023-06-03T04:44:00.883Z,60.10
2023-06-03T04:45:00.885Z,60.31
2023-06-03T04:46:00.859Z,59.87
2023-06-03T04:47:00.996Z,60.69
2023-06-03T04:48:00.889Z,60.28
2023-06-03T04:49:00.812Z,60.07
2023-06-03T04:50:00.817Z,60.58
2023-06-03T04:51:00.821Z,61.41
2023-06-03T04:52:00.800Z,60.89
2023-06-03T04:53:00.774Z,60.56
2023-06-03T04:54:00.777Z,61.27
2023-06-03T04:55:00.798Z,61.69
2023-06-03T04:56:00.787Z,61.27
2023-06-03T04:57:00.825Z,60.05
2023-06-03T04:58:00.717Z,60.35
2023-06-03T04:59:00.710Z,60.56
2023-06-03T05:00:00.704Z,60.97
2023-06-03T05:01:00.711Z,59.64
2023-06-03T05:02:00.749Z,59.74
2023-06-03T05:03:00.765Z,60.46
2023-06-03T05:04:00.690Z,60.46
2023-06-03T05:05:00.657Z,60.66
2023-06-03T05:06:00.631Z,60.22
2023-06-03T05:07:00.630Z,61.04
2023-06-03T05:08:00.638Z,60.42
2023-06-03T05:09:00.603Z,60.02
2023-06-03T05:10:00.602Z,60.19
2023-06-03T05:11:00.612Z,59.27
2023-06-03T05:12:00.638Z,59.48
2023-06-03T05:13:00.623Z,59.58
2023-06-03T05:14:00.555Z,59.04
2023-06-03T05:15:00.542Z,59.35
2023-06-03T05:16:00.588Z,58.53
2023-06-03T05:17:00.570Z,58.56
2023-06-03T05:18:00.549Z,58.76
2023-06-03T05:19:00.482Z,59.14
2023-06-03T05:20:00.493Z,58.43
2023-06-03T05:21:00.480Z,59.27
2023-06-03T05:22:00.462Z,59.45
2023-06-03T05:23:00.449Z,58.33
2023-06-03T05:24:00.507Z,59.76
2023-06-03T05:25:00.439Z,59.25
2023-06-03T05:26:00.441Z,59.14
2023-06-03T05:27:00.423Z,60.37
2023-06-03T05:28:04.313Z,58.63
2023-06-03T05:29:00.387Z,58.22
2023-06-03T05:30:00.388Z,58.02
2023-06-03T05:31:00.362Z,57.79
2023-06-03T05:32:00.404Z,58.09
2023-06-03T05:33:00.407Z,57.89
2023-06-03T05:34:00.376Z,57.79
2023-06-03T05:35:00.378Z,57.89
2023-06-03T05:36:00.332Z,58.91
2023-06-03T05:37:00.298Z,58.61
2023-06-03T05:38:00.303Z,58.81
2023-06-03T05:39:00.295Z,58.89
2023-06-03T05:40:00.319Z,59.50
2023-06-03T05:41:00.271Z,60.11
2023-06-03T05:42:00.252Z,59.60
2023-06-03T05:43:00.234Z,58.45
2023-06-03T05:44:00.243Z,59.37
2023-06-03T05:45:00.217Z,59.37
2023-06-03T05:46:00.237Z,59.37
2023-06-03T05:47:00.201Z,59.47
2023-06-03T05:48:00.280Z,57.02
2023-06-03T05:49:00.191Z,57.32
2023-06-03T05:50:00.197Z,57.91
2023-06-03T05:51:00.168Z,57.50
2023-06-03T05:52:00.202Z,57.81
2023-06-03T05:53:00.162Z,58.52
2023-06-03T05:54:00.161Z,58.62
2023-06-03T05:55:00.152Z,58.73
2023-06-03T05:56:00.169Z,57.57
2023-06-03T05:57:00.095Z,57.98
2023-06-03T05:58:00.089Z,58.19
2023-06-03T05:59:00.097Z,58.09
2023-06-03T06:00:00.054Z,58.06
2023-06-03T06:01:00.053Z,57.14
2023-06-03T06:02:00.194Z,56.73
2023-06-03T06:03:00.100Z,57.45
2023-06-03T06:04:00.066Z,56.63
2023-06-03T06:05:00.018Z,56.84
2023-06-03T06:06:00.008Z,57.14
2023-06-03T06:06:59.990Z,57.04
2023-06-03T06:08:00.001Z,56.32
2023-06-03T06:08:59.963Z,55.51
2023-06-03T06:09:59.951Z,56.23
2023-06-03T06:10:59.934Z,57.75
2023-06-03T06:11:59.965Z,56.12
2023-06-03T06:12:59.935Z,56.53
2023-06-03T06:13:59.908Z,55.20
2023-06-03T06:14:59.898Z,56.53
2023-06-03T06:16:00.008Z,56.53
2023-06-03T06:16:59.943Z,56.23
2023-06-03T06:17:59.928Z,56.02
2023-06-03T06:18:59.870Z,56.20
2023-06-03T06:19:59.876Z,55.69
2023-06-03T06:20:59.836Z,55.38
2023-06-03T06:21:59.848Z,55.89
2023-06-03T06:22:59.837Z,56.30
2023-06-03T06:23:59.851Z,56.40
2023-06-03T06:24:59.782Z,55.99
2023-06-03T06:25:59.805Z,54.46
2023-06-03T06:26:59.776Z,56.40
2023-06-03T06:27:59.754Z,56.91
2023-06-03T06:28:59.758Z,55.69
2023-06-03T06:29:59.758Z,55.79
2023-06-03T06:30:59.722Z,55.89
2023-06-03T06:31:59.772Z,54.16
2023-06-03T06:32:59.785Z,55.05
2023-06-03T06:33:59.694Z,54.85
2023-06-03T06:34:59.677Z,54.54
2023-06-03T06:35:59.674Z,55.05
2023-06-03T06:36:59.658Z,53.72
2023-06-03T06:37:59.657Z,54.33
2023-06-03T06:38:59.634Z,53.92
2023-06-03T06:39:59.673Z,54.33
2023-06-03T06:40:59.610Z,54.44
2023-06-03T06:41:59.600Z,54.54
2023-06-03T06:42:59.586Z,53.92
2023-06-03T06:43:59.581Z,54.24
2023-06-03T06:44:59.566Z,54.24
2023-06-03T06:45:59.621Z,55.05
2023-06-03T06:46:59.570Z,54.85
2023-06-03T06:47:59.591Z,54.64
2023-06-03T06:48:59.527Z,54.64
2023-06-03T06:49:59.519Z,55.05
2023-06-03T06:50:59.515Z,54.85
2023-06-03T06:51:59.498Z,54.13
2023-06-03T06:52:59.479Z,54.85
2023-06-03T06:53:59.462Z,55.46
2023-06-03T06:54:59.460Z,55.84
2023-06-03T06:55:59.449Z,54.92
2023-06-03T06:56:59.452Z,55.43
2023-06-03T06:57:59.420Z,55.51
2023-06-03T06:58:59.424Z,55.10
2023-06-03T06:59:59.412Z,55.51
2023-06-03T07:00:59.436Z,56.50
2023-06-03T07:01:59.396Z,54.46
2023-06-03T07:02:59.449Z,54.46
2023-06-03T07:03:59.646Z,53.24
2023-06-03T07:04:59.369Z,54.16
2023-06-03T07:05:59.333Z,53.04
2023-06-03T07:06:59.327Z,54.05
2023-06-03T07:07:59.329Z,53.72
2023-06-03T07:08:59.328Z,55.55
2023-06-03T07:09:59.303Z,54.33
2023-06-03T07:10:59.294Z,54.24
2023-06-03T07:11:59.269Z,53.63
2023-06-03T07:12:59.269Z,53.22
2023-06-03T07:13:59.261Z,54.13
2023-06-03T07:14:59.252Z,55.46
2023-06-03T07:16:00.135Z,55.86
2023-06-03T07:16:59.285Z,54.51
2023-06-03T07:17:59.256Z,53.39
2023-06-03T07:18:59.212Z,52.48
2023-06-03T07:19:59.218Z,52.68
2023-06-03T07:20:59.205Z,51.06
2023-06-03T07:21:59.167Z,51.46
2023-06-03T07:22:59.166Z,51.77
2023-06-03T07:23:59.171Z,52.28
2023-06-03T07:24:59.132Z,53.47
2023-06-03T07:25:59.115Z,52.96
2023-06-03T07:26:59.212Z,49.61
2023-06-03T07:27:59.106Z,47.88
2023-06-03T07:28:59.098Z,46.36
2023-06-03T07:29:59.104Z,47.06
2023-06-03T07:30:59.224Z,46.45
2023-06-03T07:31:59.088Z,48.19
2023-06-03T07:32:59.079Z,46.36
2023-06-03T07:33:59.050Z,46.33
2023-06-03T07:34:59.024Z,47.25
2023-06-03T07:35:59.015Z,47.66
2023-06-03T07:36:59.016Z,46.33
2023-06-03T07:37:59.011Z,46.94
2023-06-03T07:38:58.986Z,47.75
2023-06-03T07:39:58.963Z,47.05
2023-06-03T07:40:59.006Z,48.34
2023-06-03T07:41:58.936Z,46.62
2023-06-03T07:42:58.938Z,48.34
2023-06-03T07:43:58.920Z,46.11
2023-06-03T07:44:58.951Z,47.83
2023-06-03T07:45:58.909Z,47.10
2023-06-03T07:46:58.890Z,46.59
2023-06-03T07:47:58.906Z,47.00
2023-06-03T07:48:58.869Z,46.59
2023-06-03T07:49:58.856Z,46.90
2023-06-03T07:50:58.879Z,47.10
2023-06-03T07:51:58.841Z,48.32
2023-06-03T07:52:58.816Z,47.10
2023-06-03T07:53:58.807Z,48.75
2023-06-03T07:54:58.816Z,48.85
2023-06-03T07:55:58.794Z,48.42
2023-06-03T07:56:58.807Z,48.11
2023-06-03T07:57:58.790Z,46.90
2023-06-03T07:58:58.767Z,47.18
2023-06-03T07:59:58.747Z,47.59
2023-06-03T08:00:58.751Z,48.58
2023-06-03T08:01:58.778Z,48.18
2023-06-03T08:02:58.916Z,46.12
2023-06-03T08:03:58.708Z,45.62
2023-06-03T08:04:58.695Z,45.62
2023-06-03T08:05:58.679Z,45.31
2023-06-03T08:06:58.746Z,46.12
2023-06-03T08:07:58.701Z,47.24
2023-06-03T08:08:58.675Z,45.72
2023-06-03T08:09:58.643Z,47.14
2023-06-03T08:10:58.653Z,46.51
2023-06-03T08:11:58.626Z,45.39
2023-06-03T08:12:58.619Z,46.41
2023-06-03T08:13:58.593Z,44.18
2023-06-03T08:14:58.608Z,43.89
2023-06-03T08:15:58.616Z,43.69
2023-06-03T08:16:58.566Z,44.50
2023-06-03T08:17:58.595Z,44.90
2023-06-03T08:18:58.555Z,44.40
2023-06-03T08:19:58.545Z,43.99
2023-06-03T08:20:58.529Z,44.10
2023-06-03T08:21:58.509Z,44.58
2023-06-03T08:22:58.515Z,44.38
2023-06-03T08:23:58.606Z,44.18
2023-06-03T08:24:58.492Z,45.39
2023-06-03T08:25:58.472Z,45.37
2023-06-03T08:26:58.465Z,45.27
2023-06-03T08:27:58.451Z,44.46
2023-06-03T08:28:58.440Z,44.56
2023-06-03T08:29:58.427Z,44.38
2023-06-03T08:30:58.410Z,44.68
2023-06-03T08:31:58.544Z,45.70
2023-06-03T08:32:58.423Z,45.09
2023-06-03T08:33:58.383Z,44.68
2023-06-03T08:34:58.402Z,45.39
2023-06-03T08:35:58.357Z,44.99
2023-06-03T08:36:58.351Z,43.26
2023-06-03T08:37:58.406Z,42.55
2023-06-03T08:38:58.365Z,43.35
2023-06-03T08:39:58.348Z,42.63
2023-06-03T08:40:58.320Z,42.82
2023-06-03T08:41:58.306Z,42.54
2023-06-03T08:42:59.131Z,40.71
2023-06-03T08:43:58.659Z,42.23
2023-06-03T08:44:58.302Z,42.15
2023-06-03T08:45:58.385Z,42.84
2023-06-03T08:46:58.257Z,41.72
2023-06-03T08:47:58.281Z,42.03
2023-06-03T08:48:58.278Z,41.02
2023-06-03T08:49:58.230Z,40.81
2023-06-03T08:50:58.518Z,40.71
2023-06-03T08:51:58.212Z,41.63
2023-06-03T08:52:58.193Z,40.51
2023-06-03T08:53:58.244Z,41.93
2023-06-03T08:54:58.170Z,40.20
2023-06-03T08:55:58.166Z,39.60
2023-06-03T08:56:58.163Z,38.08
2023-06-03T08:57:58.135Z,40.11
2023-06-03T08:58:58.128Z,39.01
2023-06-03T08:59:58.111Z,40.22
2023-06-03T09:00:58.092Z,41.14
2023-06-03T09:01:58.228Z,41.44
2023-06-03T09:02:58.186Z,40.53
2023-06-03T09:03:58.120Z,41.14
2023-06-03T09:04:58.050Z,40.94
2023-06-03T09:05:58.034Z,40.63
2023-06-03T09:06:58.039Z,41.26
2023-06-03T09:07:58.029Z,42.47
2023-06-03T09:08:58.011Z,44.48
2023-06-03T09:09:57.995Z,42.33
2023-06-03T09:10:58.008Z,42.43
2023-06-03T09:11:57.974Z,40.81
2023-06-03T09:12:57.964Z,41.02
2023-06-03T09:13:57.985Z,41.93
2023-06-03T09:14:57.946Z,40.11
2023-06-03T09:15:57.982Z,38.39
2023-06-03T09:16:57.938Z,38.37
2023-06-03T09:17:57.978Z,38.67
2023-06-03T09:18:57.902Z,39.78
2023-06-03T09:19:57.928Z,39.88
2023-06-03T09:20:57.889Z,39.68
2023-06-03T09:21:57.902Z,40.39
2023-06-03T09:22:57.869Z,40.49
2023-06-03T09:23:57.904Z,40.29
2023-06-03T09:24:57.858Z,40.80
2023-06-03T09:25:57.833Z,40.49
2023-06-03T09:26:57.809Z,42.01
2023-06-03T09:27:57.804Z,40.69
2023-06-03T09:28:57.862Z,39.07
2023-06-03T09:29:57.804Z,40.39
2023-06-03T09:30:57.764Z,40.49
2023-06-03T09:31:57.851Z,42.41
2023-06-03T09:32:57.792Z,40.57
2023-06-03T09:33:57.754Z,39.86
2023-06-03T09:34:57.729Z,40.59
2023-06-03T09:35:57.715Z,40.59
2023-06-03T09:36:57.702Z,39.58
2023-06-03T09:37:57.719Z,38.14
2023-06-03T09:38:57.710Z,37.03
2023-06-03T09:39:57.703Z,37.03
2023-06-03T09:40:57.677Z,37.25
2023-06-03T09:41:57.660Z,37.96
2023-06-03T09:42:57.645Z,40.89
2023-06-03T09:43:57.646Z,41.30
2023-06-03T09:44:57.635Z,42.72
2023-06-03T09:45:57.609Z,42.94
2023-06-03T09:46:57.645Z,43.55
2023-06-03T09:47:57.668Z,43.93
2023-06-03T09:48:57.570Z,44.24
2023-06-03T09:49:57.559Z,45.33
2023-06-03T09:50:57.549Z,43.30
2023-06-03T09:51:57.534Z,44.70
2023-06-03T09:52:57.519Z,44.70
2023-06-03T09:53:57.534Z,43.18
2023-06-03T09:54:57.506Z,43.99
2023-06-03T09:55:57.587Z,42.47
2023-06-03T09:56:57.521Z,43.79
2023-06-03T09:57:57.501Z,43.38
2023-06-03T09:58:57.457Z,44.09
2023-06-03T09:59:57.455Z,45.29
2023-06-03T10:00:57.481Z,43.46
2023-06-03T10:01:57.464Z,43.16
2023-06-03T10:02:57.540Z,45.08
2023-06-03T10:03:57.402Z,43.46
2023-06-03T10:04:57.409Z,43.97
2023-06-03T10:05:58.189Z,43.24
2023-06-03T10:06:57.377Z,42.64
2023-06-03T10:07:59.264Z,42.13
2023-06-03T10:08:57.371Z,42.13
2023-06-03T10:09:57.340Z,43.95
2023-06-03T10:10:57.422Z,42.54
2023-06-03T10:11:57.351Z,40.64
2023-06-03T10:12:57.305Z,41.64
2023-06-03T10:13:57.312Z,40.86
2023-06-03T10:14:57.303Z,41.87
2023-06-03T10:15:57.260Z,42.37
2023-06-03T10:16:57.382Z,42.47
2023-06-03T10:17:57.276Z,43.08
2023-06-03T10:18:57.240Z,41.56
2023-06-03T10:19:57.230Z,42.47
2023-06-03T10:20:57.229Z,42.37
2023-06-03T10:21:57.204Z,42.07
2023-06-03T10:22:57.190Z,42.68
2023-06-03T10:23:57.194Z,43.97
2023-06-03T10:24:57.179Z,43.37
2023-06-03T10:25:57.172Z,43.97
2023-06-03T10:26:57.167Z,41.64
2023-06-03T10:27:57.147Z,41.04
2023-06-03T10:28:57.164Z,42.46
2023-06-03T10:29:57.112Z,42.46
2023-06-03T10:30:57.129Z,40.73
2023-06-03T10:31:57.115Z,41.75
2023-06-03T10:32:57.112Z,41.97
2023-06-03T10:33:57.071Z,42.66
2023-06-03T10:34:57.073Z,42.35
2023-06-03T10:35:57.040Z,43.26
2023-06-03T10:36:57.056Z,43.37
2023-06-03T10:37:57.056Z,43.85
2023-06-03T10:38:57.022Z,42.94
2023-06-03T10:39:57.018Z,42.84
2023-06-03T10:40:57.004Z,45.39
2023-06-03T10:41:56.981Z,43.34
2023-06-03T10:42:56.976Z,43.95
2023-06-03T10:43:57.004Z,42.64
2023-06-03T10:44:56.970Z,44.23
2023-06-03T10:45:56.998Z,42.21
2023-06-03T10:46:56.945Z,42.64
2023-06-03T10:47:56.960Z,43.63
2023-06-03T10:48:56.917Z,44.74
2023-06-03T10:49:56.906Z,42.33
2023-06-03T10:50:56.897Z,42.13
2023-06-03T10:51:56.891Z,42.94
2023-06-03T10:52:56.890Z,45.06
2023-06-03T10:53:56.863Z,42.94
2023-06-03T10:54:56.842Z,43.75
2023-06-03T10:55:56.888Z,44.25
2023-06-03T10:56:56.839Z,43.44
2023-06-03T10:57:56.850Z,43.46
2023-06-03T10:58:56.798Z,44.76
2023-06-03T10:59:56.790Z,44.86
2023-06-03T11:00:56.783Z,45.57
2023-06-03T11:01:56.924Z,46.36
2023-06-03T11:02:56.873Z,43.40
2023-06-03T11:03:56.782Z,43.00
2023-06-03T11:04:56.776Z,45.62
2023-06-03T11:05:56.729Z,43.40
2023-06-03T11:06:56.717Z,42.21
2023-06-03T11:07:56.724Z,43.52
2023-06-03T11:08:56.693Z,43.02
2023-06-03T11:09:56.681Z,44.23
2023-06-03T11:10:56.689Z,44.34
2023-06-03T11:11:56.684Z,44.21
2023-06-03T11:12:56.652Z,42.80
2023-06-03T11:13:56.648Z,42.49
2023-06-03T11:14:56.717Z,41.71
2023-06-03T11:15:56.665Z,42.11
2023-06-03T11:16:56.604Z,41.50
2023-06-03T11:17:56.687Z,40.70
2023-06-03T11:18:56.646Z,41.91
2023-06-03T11:19:56.601Z,42.41
2023-06-03T11:20:56.601Z,42.11
2023-06-03T11:21:56.557Z,42.29
2023-06-03T11:22:56.564Z,39.87
2023-06-03T11:23:56.552Z,41.08
2023-06-03T11:24:56.536Z,41.89
2023-06-03T11:25:56.530Z,40.17
2023-06-03T11:26:56.503Z,40.98
2023-06-03T11:27:56.501Z,41.08
2023-06-03T11:28:56.468Z,39.87
2023-06-03T11:29:56.482Z,39.48
2023-06-03T11:30:56.468Z,40.30
2023-06-03T11:31:56.463Z,40.09
2023-06-03T11:32:56.456Z,41.10
2023-06-03T11:33:56.411Z,40.17
2023-06-03T11:34:56.399Z,40.48
2023-06-03T11:35:56.405Z,40.96
2023-06-03T11:36:56.409Z,39.85
2023-06-03T11:37:56.402Z,40.25
2023-06-03T11:38:56.376Z,40.08
2023-06-03T11:39:56.368Z,38.76
2023-06-03T11:40:56.334Z,39.26
2023-06-03T11:41:56.346Z,37.16
2023-06-03T11:42:56.334Z,39.48
2023-06-03T11:43:56.319Z,39.87
2023-06-03T11:44:56.310Z,40.48
2023-06-03T11:45:56.312Z,38.66
2023-06-03T11:46:56.284Z,38.44
2023-06-03T11:47:56.353Z,38.13
2023-06-03T11:48:56.435Z,39.35
2023-06-03T11:49:56.244Z,39.15
2023-06-03T11:50:56.225Z,38.04
2023-06-03T11:51:56.216Z,38.54
2023-06-03T11:52:56.215Z,37.75
2023-06-03T11:53:56.210Z,39.57
2023-06-03T11:54:56.192Z,39.87
2023-06-03T11:55:56.199Z,38.76
2023-06-03T11:56:56.211Z,37.75
2023-06-03T11:57:56.190Z,38.34
2023-06-03T11:58:56.316Z,37.65
2023-06-03T11:59:56.146Z,39.17
2023-06-03T12:00:56.125Z,37.65
2023-06-03T12:01:56.133Z,38.06
2023-06-03T12:02:56.156Z,38.76
2023-06-03T12:03:56.105Z,37.85
2023-06-03T12:04:56.144Z,39.97
2023-06-03T12:05:56.073Z,38.56
2023-06-03T12:06:56.055Z,39.25
2023-06-03T12:07:56.065Z,38.13
2023-06-03T12:08:56.064Z,37.53
2023-06-03T12:09:56.021Z,37.43
2023-06-03T12:10:56.009Z,36.94
2023-06-03T12:11:56.011Z,38.06
2023-06-03T12:12:55.985Z,38.06
2023-06-03T12:13:56.019Z,38.06
2023-06-03T12:14:56.010Z,37.73
2023-06-03T12:15:55.979Z,37.73
2023-06-03T12:16:55.966Z,38.44
2023-06-03T12:17:55.995Z,37.51
2023-06-03T12:18:55.976Z,38.32
2023-06-03T12:19:55.930Z,37.51
2023-06-03T12:21:07.973Z,38.22
2023-06-03T12:21:55.898Z,36.40
2023-06-03T12:22:55.886Z,36.81
2023-06-03T12:23:55.995Z,39.13
2023-06-03T12:24:55.860Z,39.53
2023-06-03T12:25:55.850Z,36.29
2023-06-03T12:26:55.852Z,36.91
2023-06-03T12:27:55.845Z,36.10
2023-06-03T12:28:55.811Z,36.71
2023-06-03T12:29:55.820Z,36.30
2023-06-03T12:30:55.852Z,37.11
2023-06-03T12:31:55.943Z,37.90
2023-06-03T12:32:55.876Z,38.10
2023-06-03T12:33:55.768Z,36.67
2023-06-03T12:34:55.750Z,36.69
2023-06-03T12:35:55.803Z,37.70
2023-06-03T12:36:55.727Z,38.10
2023-06-03T12:37:55.730Z,36.98
2023-06-03T12:38:55.726Z,37.60
2023-06-03T12:39:55.687Z,38.18
2023-06-03T12:40:55.691Z,39.39
2023-06-03T12:41:55.686Z,36.87
2023-06-03T12:42:55.657Z,35.86
2023-06-03T12:43:55.652Z,35.86
2023-06-03T12:44:55.649Z,36.77
2023-06-03T12:45:55.629Z,35.48
2023-06-03T12:46:55.628Z,35.78
2023-06-03T12:47:55.615Z,36.59
2023-06-03T12:48:55.607Z,36.59
2023-06-03T12:49:55.601Z,37.19
2023-06-03T12:50:55.589Z,38.60
2023-06-03T12:51:55.560Z,35.46
2023-06-03T12:52:55.548Z,33.95
2023-06-03T12:53:55.539Z,32.24
2023-06-03T12:54:55.541Z,32.84